Terminal Aerodrome Forecast
Issued by NWS Melbourne, FL

Home | Current Version | Previous Version | Text Only | Print | Product List | Glossary On
Versions: 1 2 3 4 5 6 7 8 9 10 11 12
000
FTUS42 KMLB 291100
TAFVRB
TAF
KVRB 291129Z 2912/3012 24007KT P6SM FEW025 SCT250
     FM291400 26009KT P6SM SCT035 BKN250
     FM291800 26010KT P6SM VCTS SCT040CB BKN250
      TEMPO 2918/2921 3SM TSRA BKN035CB OVC080
     FM300200 24007KT P6SM BKN040 BKN250=

USA.gov is the U.S. government's official web portal to all federal, state and local government web resources and services.